createdAt,value
2023-01-30T00:00:00.707Z,12.13
2023-01-30T00:02:31.621Z,13.07
2023-01-30T00:05:02.185Z,12.03
2023-01-30T00:07:32.721Z,12.90
2023-01-30T00:10:04.403Z,14.33
2023-01-30T00:12:35.319Z,14.10
2023-01-30T00:15:06.878Z,13.37
2023-01-30T00:17:40.270Z,12.70
2023-01-30T00:20:15.892Z,13.90
2023-01-30T00:23:00.469Z,13.77
2023-01-30T00:25:23.696Z,14.15
2023-01-30T00:27:54.522Z,12.97
2023-01-30T00:30:28.116Z,15.27
2023-01-30T00:32:59.754Z,13.17
2023-01-30T00:35:30.588Z,15.57
2023-01-30T00:38:02.827Z,15.57
2023-01-30T00:40:34.071Z,13.80
2023-01-30T00:43:31.682Z,14.50
2023-01-30T00:46:22.197Z,13.67
2023-01-30T00:48:54.594Z,14.30
2023-01-30T00:51:26.537Z,15.70
2023-01-30T00:54:00.080Z,14.47
2023-01-30T00:56:31.279Z,13.73
2023-01-30T00:59:05.547Z,14.43
2023-01-30T01:01:37.709Z,16.20
2023-01-30T01:04:11.462Z,17.20
2023-01-30T01:06:43.523Z,14.50
2023-01-30T01:09:16.390Z,15.60
2023-01-30T01:11:47.887Z,15.50
2023-01-30T01:14:20.380Z,16.90
2023-01-30T01:16:51.353Z,16.60
2023-01-30T01:19:23.164Z,17.83
2023-01-30T01:21:56.762Z,15.70
2023-01-30T01:24:29.966Z,16.23
2023-01-30T01:27:01.960Z,14.07
2023-01-30T01:29:33.753Z,16.43
2023-01-30T01:32:08.504Z,14.60
2023-01-30T01:34:40.347Z,15.50
2023-01-30T01:37:12.578Z,16.60
2023-01-30T01:40:02.106Z,14.40
2023-01-30T01:42:35.902Z,15.70
2023-01-30T01:45:19.391Z,15.37
2023-01-30T01:48:17.858Z,16.17
2023-01-30T01:51:01.668Z,16.43
2023-01-30T01:53:36.243Z,17.87
2023-01-30T01:56:08.709Z,19.73
2023-01-30T01:58:47.568Z,16.60
2023-01-30T02:01:19.968Z,18.10
2023-01-30T02:03:56.279Z,16.17
2023-01-30T02:06:28.295Z,16.87
2023-01-30T02:09:06.905Z,20.53
2023-01-30T02:11:52.724Z,18.27
2023-01-30T02:14:25.691Z,19.83
2023-01-30T02:17:00.692Z,19.90
2023-01-30T02:19:53.825Z,19.40
2023-01-30T02:22:33.193Z,20.57
2023-01-30T02:25:19.502Z,20.13
2023-01-30T02:28:27.262Z,20.73
2023-01-30T02:31:17.021Z,20.57
2023-01-30T02:34:09.587Z,18.73
2023-01-30T02:37:01.486Z,21.33
2023-01-30T02:40:11.476Z,22.27
2023-01-30T02:42:55.045Z,24.00
2023-01-30T02:45:41.320Z,22.77
2023-01-30T02:48:18.050Z,23.00
2023-01-30T02:51:02.240Z,26.73
2023-01-30T02:53:36.822Z,21.43
2023-01-30T02:56:08.172Z,22.40
2023-01-30T02:58:44.715Z,22.80
2023-01-30T03:01:38.585Z,23.43
2023-01-30T03:04:24.960Z,23.23
2023-01-30T03:07:03.170Z,22.47
2023-01-30T03:09:39.747Z,22.20
2023-01-30T03:12:26.015Z,26.20
2023-01-30T03:15:08.753Z,23.17
2023-01-30T03:17:43.513Z,22.63
2023-01-30T03:20:18.383Z,23.47
2023-01-30T03:22:50.204Z,23.83
2023-01-30T03:25:26.724Z,20.77
2023-01-30T03:27:59.421Z,21.53
2023-01-30T03:30:34.887Z,21.07
2023-01-30T03:33:06.447Z,19.40
2023-01-30T03:35:38.064Z,19.67
2023-01-30T03:38:08.592Z,22.03
2023-01-30T03:40:41.771Z,21.73
2023-01-30T03:43:12.532Z,19.63
2023-01-30T03:45:44.291Z,19.47
2023-01-30T03:48:14.797Z,21.23
2023-01-30T03:50:47.464Z,24.27
2023-01-30T03:53:17.928Z,19.87
2023-01-30T03:55:55.627Z,19.47
2023-01-30T03:58:27.038Z,19.47
2023-01-30T04:00:58.448Z,21.37
2023-01-30T04:03:29.014Z,21.00
2023-01-30T04:06:01.119Z,21.00
2023-01-30T04:08:31.706Z,20.33
2023-01-30T04:11:02.375Z,18.93
2023-01-30T04:13:33.586Z,21.17
2023-01-30T04:16:23.831Z,20.50
2023-01-30T04:18:54.404Z,19.90
2023-01-30T04:21:25.747Z,20.73
2023-01-30T04:23:57.741Z,22.57
2023-01-30T04:26:28.353Z,19.98
2023-01-30T04:29:01.158Z,19.40
2023-01-30T04:31:31.801Z,19.17
2023-01-30T04:34:05.912Z,19.63
2023-01-30T04:36:39.935Z,17.03
2023-01-30T04:39:11.802Z,19.50
2023-01-30T04:41:44.069Z,18.93
2023-01-30T04:44:17.643Z,20.60
2023-01-30T04:46:48.185Z,20.00
2023-01-30T04:49:19.843Z,16.60
2023-01-30T04:51:52.183Z,19.07
2023-01-30T04:54:22.901Z,19.27
2023-01-30T04:56:53.669Z,23.87
2023-01-30T04:59:26.091Z,19.27
2023-01-30T05:01:58.036Z,20.57
2023-01-30T05:04:29.783Z,19.20
2023-01-30T05:07:02.987Z,20.27
2023-01-30T05:09:35.086Z,22.07
2023-01-30T05:12:08.204Z,24.80
2023-01-30T05:14:41.418Z,19.53
2023-01-30T05:17:13.765Z,21.70
2023-01-30T05:19:47.267Z,24.57
2023-01-30T05:22:18.820Z,20.97
2023-01-30T05:24:56.227Z,24.20
2023-01-30T05:27:26.833Z,23.10
2023-01-30T05:30:00.372Z,23.60
2023-01-30T05:32:32.580Z,24.27
2023-01-30T05:35:05.244Z,22.27
2023-01-30T05:37:37.326Z,26.30
2023-01-30T05:40:10.311Z,21.57
2023-01-30T05:42:42.123Z,23.93
2023-01-30T05:45:14.584Z,22.50
2023-01-30T05:47:45.941Z,22.43
2023-01-30T05:50:18.225Z,25.57
2023-01-30T05:52:49.919Z,24.33
2023-01-30T05:55:20.813Z,26.43
2023-01-30T05:57:51.492Z,24.30
2023-01-30T06:00:25.278Z,22.27
2023-01-30T06:02:58.618Z,24.90
2023-01-30T06:05:32.306Z,24.23
2023-01-30T06:08:03.019Z,22.00
2023-01-30T06:10:38.255Z,23.27
2023-01-30T06:13:11.220Z,24.03
2023-01-30T06:15:44.173Z,27.37
2023-01-30T06:18:15.543Z,24.43
2023-01-30T06:20:55.643Z,26.17
2023-01-30T06:23:28.138Z,24.73
2023-01-30T06:26:05.872Z,25.70
2023-01-30T06:28:35.853Z,23.07
2023-01-30T06:31:09.802Z,25.57
2023-01-30T06:33:41.962Z,22.37
2023-01-30T06:36:25.652Z,22.50
2023-01-30T06:38:46.975Z,21.27
2023-01-30T06:41:19.904Z,22.70
2023-01-30T06:43:52.063Z,22.50
2023-01-30T06:46:24.542Z,21.10
2023-01-30T06:48:57.944Z,18.67
2023-01-30T06:51:28.663Z,19.13
2023-01-30T06:53:59.430Z,19.60
2023-01-30T06:56:31.772Z,18.70
2023-01-30T06:59:03.739Z,19.13
2023-01-30T07:01:34.238Z,19.57
2023-01-30T07:04:07.681Z,16.90
2023-01-30T07:06:40.787Z,19.67
2023-01-30T07:09:13.183Z,17.43
2023-01-30T07:11:47.601Z,15.13
2023-01-30T07:14:18.191Z,14.80
2023-01-30T07:16:49.129Z,15.63
2023-01-30T07:19:21.134Z,16.75
2023-01-30T07:21:52.691Z,14.83
2023-01-30T07:24:24.496Z,16.07
2023-01-30T07:26:56.860Z,15.13
2023-01-30T07:29:27.854Z,14.53
2023-01-30T07:32:00.553Z,14.20
2023-01-30T07:34:36.269Z,13.47
2023-01-30T07:37:08.515Z,13.38
2023-01-30T07:39:40.122Z,12.63
2023-01-30T07:42:11.762Z,12.35
2023-01-30T07:44:46.940Z,12.13
2023-01-30T07:47:19.251Z,12.13
2023-01-30T07:49:51.360Z,13.70
2023-01-30T07:52:22.283Z,11.70
2023-01-30T07:54:54.478Z,11.55
2023-01-30T07:57:26.541Z,11.00
2023-01-30T07:59:57.938Z,10.53
2023-01-30T08:02:29.337Z,10.65
2023-01-30T08:05:00.321Z,11.83
2023-01-30T08:07:31.506Z,9.87
2023-01-30T08:10:02.018Z,10.67
2023-01-30T08:12:32.893Z,10.03
2023-01-30T08:15:06.246Z,11.37
2023-01-30T08:17:37.722Z,10.37
2023-01-30T08:20:13.108Z,11.90
2023-01-30T08:22:44.566Z,10.13
2023-01-30T08:25:17.616Z,12.10
2023-01-30T08:27:49.077Z,10.93
2023-01-30T08:30:24.125Z,9.73
2023-01-30T08:32:58.343Z,10.23
2023-01-30T08:35:30.350Z,9.20
2023-01-30T08:38:03.579Z,10.53
2023-01-30T08:40:35.211Z,11.03
2023-01-30T08:43:06.161Z,9.40
2023-01-30T08:45:38.040Z,8.20
2023-01-30T08:48:10.695Z,8.50
2023-01-30T08:50:42.394Z,7.50
2023-01-30T08:53:13.087Z,8.15
2023-01-30T08:55:47.662Z,6.43
2023-01-30T08:58:18.387Z,6.33
2023-01-30T09:00:50.445Z,6.67
2023-01-30T09:03:21.255Z,5.60
2023-01-30T09:05:58.264Z,6.47
2023-01-30T09:08:29.266Z,7.05
2023-01-30T09:11:02.354Z,5.50
2023-01-30T09:13:38.326Z,7.20
2023-01-30T09:16:09.040Z,6.35
2023-01-30T09:18:41.606Z,6.45
2023-01-30T09:21:13.819Z,5.12
2023-01-30T09:23:44.534Z,5.17
2023-01-30T09:26:17.570Z,6.70
2023-01-30T09:28:48.637Z,5.73
2023-01-30T09:31:19.554Z,8.05
2023-01-30T09:33:51.801Z,5.28
2023-01-30T09:36:22.709Z,5.75
2023-01-30T09:38:54.952Z,6.78
2023-01-30T09:41:40.463Z,5.13
2023-01-30T09:44:14.117Z,5.80
2023-01-30T09:47:03.462Z,9.88
2023-01-30T09:49:48.942Z,6.15
2023-01-30T09:52:25.361Z,5.00
2023-01-30T09:54:59.032Z,7.75
2023-01-30T09:57:30.137Z,8.15
2023-01-30T10:00:10.124Z,5.28
2023-01-30T10:02:43.790Z,4.90
2023-01-30T10:05:17.536Z,5.42
2023-01-30T10:08:08.209Z,4.53
2023-01-30T10:11:10.094Z,6.50
2023-01-30T10:13:48.755Z,5.72
2023-01-30T10:16:28.211Z,8.98
2023-01-30T10:19:36.487Z,5.05
2023-01-30T10:22:10.456Z,6.03
2023-01-30T10:24:57.286Z,7.30
2023-01-30T10:27:31.491Z,7.75
2023-01-30T10:30:05.151Z,6.80
2023-01-30T10:32:41.817Z,9.58
2023-01-30T10:35:19.695Z,8.25
2023-01-30T10:38:01.944Z,7.70
2023-01-30T10:40:48.921Z,11.63
2023-01-30T10:43:31.824Z,7.33
2023-01-30T10:46:20.425Z,9.75
2023-01-30T10:49:10.690Z,8.08
2023-01-30T10:51:59.542Z,8.60
2023-01-30T10:54:39.237Z,9.68
2023-01-30T10:57:21.669Z,9.23
2023-01-30T10:59:59.718Z,9.08
2023-01-30T11:02:38.501Z,8.93
2023-01-30T11:05:22.119Z,8.78
2023-01-30T11:07:52.978Z,11.93
2023-01-30T11:10:28.091Z,12.82
2023-01-30T11:13:02.936Z,8.50
2023-01-30T11:15:44.767Z,12.30
2023-01-30T11:19:17.643Z,12.40
2023-01-30T11:21:09.001Z,7.37
2023-01-30T11:23:44.201Z,7.65
2023-01-30T11:26:29.491Z,6.80
2023-01-30T11:29:00.322Z,9.78
2023-01-30T11:31:41.228Z,11.28
2023-01-30T11:34:16.190Z,10.75
2023-01-30T11:36:50.156Z,12.50
2023-01-30T11:39:23.426Z,7.78
2023-01-30T11:42:01.861Z,10.32
2023-01-30T11:44:38.219Z,13.13
2023-01-30T11:47:13.443Z,10.90
2023-01-30T11:50:29.062Z,12.00
2023-01-30T11:52:24.906Z,6.42
2023-01-30T11:54:59.391Z,6.65
2023-01-30T11:57:31.716Z,5.50
2023-01-30T12:00:04.367Z,6.37
2023-01-30T12:02:38.589Z,5.40
2023-01-30T12:05:24.544Z,5.30
2023-01-30T12:07:56.626Z,10.13
2023-01-30T12:10:32.630Z,5.90
2023-01-30T12:13:08.247Z,8.40
2023-01-30T12:15:40.602Z,7.30
2023-01-30T12:18:28.746Z,8.13
2023-01-30T12:21:06.485Z,8.80
2023-01-30T12:23:44.695Z,9.23
2023-01-30T12:26:37.261Z,12.13
2023-01-30T12:29:30.146Z,8.95
2023-01-30T12:32:12.602Z,10.35
2023-01-30T12:34:48.253Z,14.13
2023-01-30T12:37:21.824Z,9.13
2023-01-30T12:39:59.931Z,10.40
2023-01-30T12:42:57.377Z,12.47
2023-01-30T12:45:31.058Z,10.88
2023-01-30T12:48:19.624Z,8.15
2023-01-30T12:51:25.371Z,10.43
2023-01-30T12:54:16.014Z,11.12
2023-01-30T12:57:07.397Z,10.95
2023-01-30T12:59:53.446Z,8.78
2023-01-30T13:02:41.566Z,9.08
2023-01-30T13:05:42.339Z,9.55
2023-01-30T13:08:46.915Z,10.10
2023-01-30T13:11:41.855Z,7.45
2023-01-30T13:14:38.111Z,8.18
2023-01-30T13:17:27.605Z,12.18
2023-01-30T13:20:02.793Z,10.65
2023-01-30T13:22:49.308Z,8.53
2023-01-30T13:25:22.859Z,7.47
2023-01-30T13:27:57.928Z,5.12
2023-01-30T13:30:30.677Z,8.05
2023-01-30T13:33:13.356Z,7.42
2023-01-30T13:35:49.739Z,6.90
2023-01-30T13:38:24.525Z,5.58
2023-01-30T13:41:02.104Z,7.53
2023-01-30T13:43:41.818Z,9.87
2023-01-30T13:46:19.292Z,7.33
2023-01-30T13:49:11.371Z,4.30
2023-01-30T13:52:02.627Z,6.40
2023-01-30T13:54:46.585Z,8.58
2023-01-30T13:57:24.745Z,6.83
2023-01-30T14:00:31.803Z,7.87
2023-01-30T14:03:08.360Z,6.45
2023-01-30T14:06:02.442Z,10.37
2023-01-30T14:08:51.372Z,8.25
2023-01-30T14:11:40.267Z,7.65
2023-01-30T14:14:24.810Z,4.63
2023-01-30T14:16:58.686Z,5.73
2023-01-30T14:19:35.194Z,4.28
2023-01-30T14:22:25.405Z,6.15
2023-01-30T14:25:33.753Z,8.83
2023-01-30T14:28:10.370Z,4.20
2023-01-30T14:30:49.574Z,5.97
2023-01-30T14:33:26.179Z,3.45
2023-01-30T14:36:06.979Z,3.20
2023-01-30T14:38:39.812Z,1.67
2023-01-30T14:41:21.088Z,1.23
2023-01-30T14:43:54.862Z,3.57
2023-01-30T14:46:30.517Z,1.47
2023-01-30T14:49:06.873Z,1.70
2023-01-30T14:51:52.253Z,1.25
2023-01-30T14:54:33.284Z,2.52
2023-01-30T14:57:05.501Z,2.20
2023-01-30T15:00:11.470Z,2.40
2023-01-30T15:02:31.374Z,2.00
2023-01-30T15:05:06.779Z,5.77
2023-01-30T15:08:00.104Z,5.80
2023-01-30T15:10:53.711Z,5.33
2023-01-30T15:13:30.101Z,4.92
2023-01-30T15:16:18.985Z,3.77
2023-01-30T15:19:24.401Z,2.60
2023-01-30T15:22:17.167Z,4.70
2023-01-30T15:25:06.978Z,5.60
2023-01-30T15:27:55.753Z,4.12
2023-01-30T15:30:34.802Z,5.67
2023-01-30T15:33:31.474Z,4.33
2023-01-30T15:36:00.271Z,5.27
2023-01-30T15:38:35.994Z,5.00
2023-01-30T15:41:07.708Z,3.17
2023-01-30T15:43:55.430Z,3.35
2023-01-30T15:46:38.275Z,3.65
2023-01-30T15:49:28.296Z,4.73
2023-01-30T15:52:10.790Z,3.10
2023-01-30T15:54:44.538Z,5.13
2023-01-30T15:57:19.813Z,4.27
2023-01-30T15:59:50.493Z,4.97
2023-01-30T16:02:35.613Z,3.60
2023-01-30T16:05:17.453Z,6.43
2023-01-30T16:07:54.612Z,6.78
2023-01-30T16:10:28.147Z,4.53
2023-01-30T16:13:01.197Z,5.13
2023-01-30T16:15:48.763Z,4.62
2023-01-30T16:18:34.402Z,8.63
2023-01-30T16:21:07.952Z,7.35
2023-01-30T16:23:41.494Z,8.40
2023-01-30T16:26:18.130Z,11.17
2023-01-30T16:28:51.675Z,6.17
2023-01-30T16:31:25.458Z,9.70
2023-01-30T16:33:56.331Z,9.00
2023-01-30T16:36:32.311Z,7.13
2023-01-30T16:39:05.890Z,9.03
2023-01-30T16:41:45.607Z,11.22
2023-01-30T16:44:24.837Z,7.95
2023-01-30T16:47:06.892Z,9.90
2023-01-30T16:49:48.833Z,14.57
2023-01-30T16:52:24.044Z,9.95
2023-01-30T16:55:00.978Z,8.03
2023-01-30T16:57:37.341Z,7.17
2023-01-30T17:00:24.495Z,8.57
2023-01-30T17:03:07.007Z,7.43
2023-01-30T17:05:46.614Z,8.23
2023-01-30T17:08:42.925Z,6.23
2023-01-30T17:11:33.238Z,12.43
2023-01-30T17:14:22.146Z,8.33
2023-01-30T17:17:11.008Z,6.90
2023-01-30T17:19:45.978Z,10.27
2023-01-30T17:22:20.350Z,6.23
2023-01-30T17:24:53.531Z,10.32
2023-01-30T17:27:27.620Z,7.05
2023-01-30T17:29:58.934Z,9.30
2023-01-30T17:32:29.742Z,8.90
2023-01-30T17:35:03.456Z,8.83
2023-01-30T17:37:34.069Z,8.50
2023-01-30T17:40:08.042Z,8.23
2023-01-30T17:42:38.880Z,8.50
2023-01-30T17:45:12.007Z,11.20
2023-01-30T17:47:42.592Z,7.72
2023-01-30T17:50:19.971Z,7.47
2023-01-30T17:52:51.591Z,12.17
2023-01-30T17:55:22.638Z,12.23
2023-01-30T17:57:55.293Z,9.10
2023-01-30T18:00:26.114Z,12.43
2023-01-30T18:02:58.284Z,10.90
2023-01-30T18:05:32.710Z,11.40
2023-01-30T18:08:04.787Z,11.50
2023-01-30T18:10:37.526Z,10.90
2023-01-30T18:13:08.044Z,7.37
2023-01-30T18:15:40.162Z,12.65
2023-01-30T18:18:16.145Z,11.63
2023-01-30T18:20:48.902Z,9.13
2023-01-30T18:23:21.933Z,10.98
2023-01-30T18:25:53.484Z,13.40
2023-01-30T18:28:27.169Z,7.67
2023-01-30T18:30:59.896Z,13.90
2023-01-30T18:33:33.256Z,9.33
2023-01-30T18:36:09.033Z,11.80
2023-01-30T18:38:42.443Z,10.45
2023-01-30T18:41:16.470Z,11.43
2023-01-30T18:43:50.583Z,8.73
2023-01-30T18:46:23.484Z,17.00
2023-01-30T18:48:55.352Z,10.58
2023-01-30T18:51:31.553Z,7.83
2023-01-30T18:54:03.377Z,13.55
2023-01-30T18:56:35.492Z,11.85
2023-01-30T18:59:08.469Z,11.15
2023-01-30T19:01:42.769Z,15.05
2023-01-30T19:04:16.403Z,12.05
2023-01-30T19:06:49.395Z,12.80
2023-01-30T19:09:24.365Z,12.75
2023-01-30T19:12:14.027Z,12.50
2023-01-30T19:14:47.263Z,14.67
2023-01-30T19:17:19.227Z,16.30
2023-01-30T19:19:51.532Z,9.55
2023-01-30T19:22:23.663Z,12.80
2023-01-30T19:24:54.178Z,15.18
2023-01-30T19:27:25.931Z,20.10
2023-01-30T19:29:58.682Z,17.17
2023-01-30T19:32:29.458Z,9.73
2023-01-30T19:35:01.666Z,14.80
2023-01-30T19:37:33.559Z,10.25
2023-01-30T19:40:08.747Z,9.90
2023-01-30T19:42:44.420Z,9.90
2023-01-30T19:45:15.004Z,16.53
2023-01-30T19:47:46.892Z,10.55
2023-01-30T19:50:17.825Z,12.70
2023-01-30T19:52:49.682Z,14.53
2023-01-30T19:55:22.053Z,15.80
2023-01-30T19:57:53.151Z,17.10
2023-01-30T20:00:24.900Z,11.97
2023-01-30T20:02:57.872Z,8.40
2023-01-30T20:05:30.972Z,15.78
2023-01-30T20:08:01.612Z,12.20
2023-01-30T20:10:39.714Z,15.30
2023-01-30T20:13:10.405Z,14.00
2023-01-30T20:15:43.741Z,15.13
2023-01-30T20:18:19.302Z,11.63
2023-01-30T20:20:54.402Z,16.95
2023-01-30T20:23:27.783Z,12.03
2023-01-30T20:25:59.405Z,8.37
2023-01-30T20:28:30.244Z,16.27
2023-01-30T20:31:05.035Z,9.90
2023-01-30T20:33:36.458Z,10.17
2023-01-30T20:36:11.486Z,8.63
2023-01-30T20:38:44.543Z,12.10
2023-01-30T20:41:21.427Z,10.07
2023-01-30T20:43:56.703Z,10.07
2023-01-30T20:46:43.897Z,14.83
2023-01-30T20:49:21.362Z,11.77
2023-01-30T20:51:56.081Z,7.77
2023-01-30T20:54:28.315Z,12.60
2023-01-30T20:56:58.913Z,11.20
2023-01-30T20:59:30.036Z,14.23
2023-01-30T21:02:03.317Z,13.70
2023-01-30T21:04:37.637Z,10.43
2023-01-30T21:07:12.457Z,9.80
2023-01-30T21:09:44.020Z,13.83
2023-01-30T21:12:16.321Z,9.57
2023-01-30T21:14:49.585Z,10.23
2023-01-30T21:17:28.650Z,9.13
2023-01-30T21:20:01.615Z,11.53
2023-01-30T21:22:32.737Z,12.00
2023-01-30T21:25:05.059Z,12.93
2023-01-30T21:27:40.805Z,9.47
2023-01-30T21:30:15.383Z,7.87
2023-01-30T21:32:46.435Z,8.33
2023-01-30T21:35:17.265Z,9.73
2023-01-30T21:38:07.021Z,13.80
2023-01-30T21:40:59.353Z,9.83
2023-01-30T21:43:30.031Z,11.07
2023-01-30T21:46:03.147Z,11.43
2023-01-30T21:48:34.863Z,7.10
2023-01-30T21:51:13.708Z,14.47
2023-01-30T21:53:46.198Z,9.30
2023-01-30T21:56:18.574Z,7.70
2023-01-30T21:58:51.795Z,8.43
2023-01-30T22:01:22.832Z,7.43
2023-01-30T22:03:54.068Z,9.50
2023-01-30T22:06:26.996Z,7.60
2023-01-30T22:09:00.214Z,7.97
2023-01-30T22:11:31.501Z,10.43
2023-01-30T22:14:03.885Z,9.17
2023-01-30T22:16:37.519Z,8.47
2023-01-30T22:19:08.590Z,8.70
2023-01-30T22:21:40.875Z,14.77
2023-01-30T22:24:11.689Z,10.07
2023-01-30T22:26:42.167Z,10.03
2023-01-30T22:29:19.182Z,9.30
2023-01-30T22:31:50.140Z,9.27
2023-01-30T22:34:30.580Z,12.77
2023-01-30T22:37:04.019Z,10.67
2023-01-30T22:39:36.035Z,7.67
2023-01-30T22:42:08.885Z,10.17
2023-01-30T22:44:40.617Z,16.00
2023-01-30T22:47:17.686Z,7.60
2023-01-30T22:49:49.265Z,10.50
2023-01-30T22:52:21.388Z,10.10
2023-01-30T22:54:53.797Z,10.73
2023-01-30T22:57:27.544Z,10.63
2023-01-30T23:00:02.865Z,9.93
2023-01-30T23:02:36.929Z,11.03
2023-01-30T23:05:14.546Z,8.67
2023-01-30T23:07:47.054Z,9.27
2023-01-30T23:10:21.382Z,16.87
2023-01-30T23:13:08.952Z,11.90
2023-01-30T23:15:43.909Z,7.77
2023-01-30T23:18:35.571Z,10.80
2023-01-30T23:21:09.154Z,11.60
2023-01-30T23:23:43.129Z,13.37
2023-01-30T23:26:14.693Z,10.00
2023-01-30T23:28:45.314Z,9.13
2023-01-30T23:31:18.989Z,11.87
2023-01-30T23:33:58.114Z,10.83
2023-01-30T23:36:29.293Z,8.53
2023-01-30T23:39:03.330Z,9.67
2023-01-30T23:41:37.617Z,11.73
2023-01-30T23:44:10.920Z,15.27
2023-01-30T23:46:43.890Z,16.30
2023-01-30T23:49:15.946Z,12.93
2023-01-30T23:51:49.131Z,15.60
2023-01-30T23:54:20.275Z,16.23
2023-01-30T23:56:51.233Z,9.70
2023-01-30T23:59:23.057Z,7.57
